»·PEaware :: N117CY KHND-E25

N117CY :: KHND-E25

FLIGHT INFORMATION

Flight Status: Arrived
Operator: Privately registered:
United States
More flights under this callsign
Pilot: Utku A. (15598)
Aircraft: SOCATA TBM-900
(TBM9)
More flights by this aircraft type
Origin: KHND Henderson
United States
Destination: E25 Wickenburg Mun
United States
More flights between these airports :: More routes between these airports
Route: +BLD V105 KARLO
File this flight plan on PilotEdge
Remarks:
Altitude:
(Current/Filed)
11,000ft
Speed:
(Current/Filed)
250kts
Departed: 08-Nov-18 05:15 PM
Arrived: 08-Nov-18 06:04 PM
Distance/Time
Traveled:
166nm/0:49
Distance/Time
To Go:
Arrived

Flight Plot

Page will automatically refresh every two minutes.

Flight plan parsing failed; only flown route is shown


Map Options




Map Legend


Flown Route
Filed Route
Departure Airport
Arrival Airport
Navaid (VOR, NDB)
Fix

Horizontal Profiles

Position Reports

Time Latitude Longitude Heading Altitude Ground
Speed
08-Nov-18 16:52 35.977791 -115.137970 3 2447ft 0kts
08-Nov-18 16:53 35.977791 -115.137970 3 2447ft 0kts
08-Nov-18 16:54 35.977791 -115.137970 3 2447ft 0kts
08-Nov-18 16:55 35.977791 -115.137970 3 2447ft 0kts
08-Nov-18 16:56 35.977791 -115.137970 3 2447ft 0kts
08-Nov-18 16:57 35.977791 -115.137970 3 2447ft 0kts
08-Nov-18 16:58 35.977791 -115.137970 3 2447ft 0kts
08-Nov-18 16:59 35.977791 -115.137970 3 2447ft 0kts
08-Nov-18 17:00 35.977791 -115.137970 3 2447ft 0kts
08-Nov-18 17:01 35.977791 -115.137970 3 2447ft 0kts
08-Nov-18 17:02 35.977791 -115.137970 3 2447ft 0kts
08-Nov-18 17:03 35.977791 -115.137970 3 2447ft 0kts
08-Nov-18 17:04 35.977791 -115.137970 3 2447ft 0kts
08-Nov-18 17:05 35.977791 -115.137970 3 2447ft 0kts
08-Nov-18 17:06 35.977791 -115.137970 3 2447ft 0kts
08-Nov-18 17:07 35.977791 -115.137970 3 2447ft 0kts
08-Nov-18 17:08 35.977791 -115.137970 3 2447ft 0kts
08-Nov-18 17:09 35.977791 -115.137970 3 2447ft 0kts
08-Nov-18 17:10 35.977791 -115.137970 3 2447ft 0kts
08-Nov-18 17:11 35.977791 -115.137970 3 2447ft 0kts
08-Nov-18 17:12 35.977791 -115.137970 3 2447ft 0kts
08-Nov-18 17:13 35.977931 -115.137207 111 2447ft 5kts
08-Nov-18 17:14 35.976817 -115.136396 180 2446ft 12kts
08-Nov-18 17:15 35.971782 -115.136452 180 2446ft 20kts
08-Nov-18 17:16 35.967007 -115.136510 180 2446ft 18kts
08-Nov-18 17:17 35.963625 -115.135806 88 2446ft 6kts
08-Nov-18 17:18 35.976784 -115.135645 3 2969ft 100kts
08-Nov-18 17:19 35.974219 -115.109056 172 4825ft 143kts
08-Nov-18 17:20 35.935638 -115.117730 191 6736ft 142kts
08-Nov-18 17:21 35.894527 -115.128989 188 8467ft 155kts
08-Nov-18 17:22 35.876120 -115.093551 91 10193ft 139kts
08-Nov-18 17:23 35.871557 -115.044316 91 11461ft 165kts
08-Nov-18 17:24 35.866653 -114.985270 91 13146ft 175kts
08-Nov-18 17:25 35.860320 -114.925765 91 14858ft 179kts
08-Nov-18 17:26 35.852751 -114.854746 91 15016ft 234kts
08-Nov-18 17:27 35.844913 -114.771591 91 15001ft 251kts
08-Nov-18 17:28 35.837064 -114.685372 91 14998ft 255kts
08-Nov-18 17:29 35.830146 -114.598383 91 14997ft 256kts
08-Nov-18 17:30 35.798690 -114.518155 115 15038ft 270kts
08-Nov-18 17:31 35.759289 -114.438000 115 15032ft 276kts
08-Nov-18 17:32 35.719329 -114.356756 115 15019ft 278kts
08-Nov-18 17:33 35.679562 -114.276086 116 15000ft 279kts
08-Nov-18 17:34 35.639221 -114.194449 116 14990ft 279kts
08-Nov-18 17:35 35.598348 -114.113587 118 14990ft 280kts
08-Nov-18 17:36 35.555594 -114.033786 118 14990ft 280kts
08-Nov-18 17:37 35.512790 -113.954154 118 14990ft 280kts
08-Nov-18 17:38 35.469827 -113.874476 118 14990ft 280kts
08-Nov-18 17:39 35.426830 -113.794875 118 14990ft 280kts
08-Nov-18 17:40 35.383786 -113.715294 118 14991ft 280kts
08-Nov-18 17:41 35.340726 -113.635867 118 14991ft 280kts
08-Nov-18 17:42 35.297561 -113.556589 118 14991ft 280kts
08-Nov-18 17:43 35.254368 -113.477390 118 14991ft 280kts
08-Nov-18 17:44 35.211094 -113.398167 118 14991ft 280kts
08-Nov-18 17:45 35.168480 -113.320327 119 15016ft 279kts
08-Nov-18 17:46 35.125115 -113.241289 119 15018ft 280kts
08-Nov-18 17:47 35.056060 -113.198542 160 15014ft 295kts
08-Nov-18 17:48 34.977523 -113.169421 160 15009ft 296kts
08-Nov-18 17:49 34.898689 -113.139762 162 15006ft 299kts
08-Nov-18 17:50 34.824341 -113.111907 163 14997ft 300kts
08-Nov-18 17:51 34.745040 -113.082197 163 14994ft 300kts
08-Nov-18 17:52 34.665245 -113.052354 163 14991ft 300kts
08-Nov-18 17:53 34.585725 -113.022710 162 14990ft 300kts
08-Nov-18 17:54 34.506277 -112.993119 161 14991ft 298kts
08-Nov-18 17:55 34.427389 -112.963781 160 14991ft 296kts
08-Nov-18 17:56 34.348874 -112.934638 160 14991ft 293kts
08-Nov-18 17:57 34.270521 -112.905609 159 14477ft 302kts
08-Nov-18 17:58 34.194410 -112.877468 160 12988ft 257kts
08-Nov-18 17:59 34.128878 -112.883449 169 10918ft 228kts
08-Nov-18 18:00 34.093228 -112.829134 120 8942ft 207kts
08-Nov-18 18:01 34.065032 -112.769167 120 6929ft 204kts
08-Nov-18 18:02 34.023445 -112.747547 199 5212ft 181kts
08-Nov-18 18:03 33.982056 -112.742637 132 3802ft 124kts
08-Nov-18 18:04 33.993274 -112.734736 263 3130ft 101kts
08-Nov-18 18:05 33.985607 -112.762024 238 2823ft 82kts
08-Nov-18 18:06 33.973980 -112.787151 240 2390ft 84kts
08-Nov-18 18:07 33.968263 -112.799665 240 2338ft 11kts
08-Nov-18 18:08 33.967703 -112.800881 61 2338ft 13kts
08-Nov-18 18:09 33.967176 -112.800644 240 2338ft 12kts
08-Nov-18 18:10 33.965809 -112.802646 316 2338ft 2kts
08-Nov-18 18:11 33.965814 -112.802648 332 2338ft 0kts
08-Nov-18 18:12 33.965814 -112.802648 332 2338ft 0kts
08-Nov-18 18:13 33.965814 -112.802648 332 2338ft 0kts
08-Nov-18 18:14 33.965814 -112.802648 332 2338ft 0kts
08-Nov-18 18:15 33.965814 -112.802648 332 2338ft 0kts
08-Nov-18 18:16 33.965814 -112.802648 332 2338ft 0kts
08-Nov-18 18:17 33.965814 -112.802648 332 2338ft 0kts
08-Nov-18 18:18 33.965814 -112.802648 332 2338ft 0kts
08-Nov-18 18:19 33.965814 -112.802648 332 2338ft 0kts
08-Nov-18 18:20 33.965814 -112.802648 332 2338ft 0kts
08-Nov-18 18:21 33.965814 -112.802648 332 2338ft 0kts
08-Nov-18 18:22 33.965814 -112.802648 332 2338ft 0kts

Navigation Log

Ident Type
Flight plan parsing failed, navigation log unavailable